Time;durP1;ratioP1;P1;durP2;ratioP2;P2;SDS_P1;SDS_P2;PMS_P1;PMS_P2;Temp;Humidity;BMP_temperature;BMP_pressure;BME280_temperature;BME280_humidity;BME280_pressure;Samples;Min_cycle;Max_cycle;Signal;HPM_P1;HPM_P2
2021/07/05 00:00:57;;;;;;;18.15;6.72;;;;;;;15.81;100.00;96912.78;4980907;28;20048;-81
2021/07/05 00:03:23;;;;;;;13.77;7.68;;;;;;;15.72;100.00;96903.72;4980811;28;20033;-80
2021/07/05 00:05:48;;;;;;;16.17;7.78;;;;;;;15.70;100.00;96905.72;4997265;28;20025;-81
2021/07/05 00:08:14;;;;;;;12.80;7.63;;;;;;;15.71;100.00;96902.03;4996998;28;20065;-80
2021/07/05 00:10:39;;;;;;;20.33;7.78;;;;;;;15.84;100.00;96900.91;4996984;28;20071;-81
2021/07/05 00:13:05;;;;;;;12.93;7.25;;;;;;;15.85;100.00;96892.66;5014371;28;20068;-81
2021/07/05 00:15:33;;;;;;;12.73;6.88;;;;;;;15.95;100.00;96896.19;4980281;28;20045;-82
2021/07/05 00:18:05;;;;;;;13.35;6.65;;;;;;;15.99;100.00;96894.06;4996807;28;20030;-81
2021/07/05 00:20:34;;;;;;;11.85;6.88;;;;;;;15.95;100.00;96889.94;4980406;28;20473;-81
2021/07/05 00:22:59;;;;;;;14.10;7.30;;;;;;;15.84;100.00;96890.97;4997166;28;20487;-81
2021/07/05 00:25:25;;;;;;;9.85;6.95;;;;;;;15.80;100.00;96894.94;4996651;28;20112;-80
2021/07/05 00:27:51;;;;;;;10.70;7.10;;;;;;;15.75;100.00;96889.09;4996786;28;20041;-81
2021/07/05 00:30:17;;;;;;;18.45;7.38;;;;;;;15.75;100.00;96889.09;4996582;28;20034;-80
2021/07/05 00:32:44;;;;;;;13.60;7.82;;;;;;;15.68;100.00;96879.91;4980331;28;20513;-81
2021/07/05 00:35:11;;;;;;;16.13;7.40;;;;;;;15.62;100.00;96880.47;4996497;28;20095;-81
2021/07/05 00:37:36;;;;;;;12.60;7.53;;;;;;;15.58;100.00;96877.19;4996588;28;20026;-81
2021/07/05 00:40:04;;;;;;;11.07;7.38;;;;;;;15.56;100.00;96878.34;4980565;28;20034;-79
2021/07/05 00:42:30;;;;;;;8.40;6.53;;;;;;;15.53;100.00;96876.78;4979964;28;20038;-78
2021/07/05 00:44:55;;;;;;;10.23;7.22;;;;;;;15.47;100.00;96871.06;4996322;28;20061;-81
2021/07/05 00:47:21;;;;;;;10.63;6.88;;;;;;;15.34;100.00;96865.09;4995969;28;20040;-81
2021/07/05 00:49:47;;;;;;;11.60;7.18;;;;;;;15.26;100.00;96868.47;4980189;28;20382;-79
2021/07/05 00:52:12;;;;;;;13.90;7.40;;;;;;;15.31;100.00;96860.00;4996242;28;20033;-79
2021/07/05 00:54:38;;;;;;;11.57;7.47;;;;;;;15.25;100.00;96865.94;5013467;28;20034;-79
2021/07/05 00:57:04;;;;;;;13.18;7.05;;;;;;;15.19;100.00;96857.44;4996227;28;20021;-79
2021/07/05 00:59:29;;;;;;;9.20;6.90;;;;;;;15.23;100.00;96874.16;4979511;28;20069;-79
2021/07/05 01:01:55;;;;;;;15.77;7.47;;;;;;;15.23;100.00;96868.78;4996006;28;20053;-79
2021/07/05 01:04:21;;;;;;;9.77;7.30;;;;;;;15.11;100.00;96856.41;4979552;28;20025;-79
2021/07/05 01:06:46;;;;;;;10.80;7.32;;;;;;;15.06;100.00;96867.63;4996153;28;20041;-79
2021/07/05 01:09:12;;;;;;;11.85;7.57;;;;;;;15.02;100.00;96862.66;4995972;28;20073;-79
2021/07/05 01:11:37;;;;;;;11.18;7.07;;;;;;;14.99;100.00;96861.09;5013292;28;20136;-78
2021/07/05 01:14:03;;;;;;;11.02;7.60;;;;;;;15.05;100.00;96870.44;4995679;28;20040;-78
2021/07/05 01:16:29;;;;;;;11.05;7.25;;;;;;;15.05;100.00;96867.75;5013019;28;20489;-78
2021/07/05 01:18:54;;;;;;;10.18;7.30;;;;;;;15.05;100.00;96857.84;5013272;28;20410;-79
2021/07/05 01:21:21;;;;;;;11.05;6.95;;;;;;;15.01;100.00;96869.03;4979693;28;20030;-78
2021/07/05 01:23:46;;;;;;;12.55;6.97;;;;;;;15.01;100.00;96853.72;4995472;28;20520;-78
2021/07/05 01:26:12;;;;;;;10.23;7.15;;;;;;;15.10;100.00;96858.25;5013031;28;20121;-78
2021/07/05 01:28:37;;;;;;;9.88;7.53;;;;;;;15.05;100.00;96856.97;4995386;28;20077;-78
2021/07/05 01:31:03;;;;;;;12.23;7.32;;;;;;;14.98;100.00;96853.97;4995380;28;20068;-78
2021/07/05 01:33:29;;;;;;;9.68;7.03;;;;;;;15.03;100.00;96856.28;4995345;28;20061;-78
2021/07/05 01:35:54;;;;;;;11.75;7.18;;;;;;;15.02;100.00;96863.50;4979227;28;20028;-79
2021/07/05 01:38:22;;;;;;;10.20;7.20;;;;;;;14.96;100.00;96860.50;4995288;28;20030;-78
2021/07/05 01:40:57;;;;;;;12.30;7.55;;;;;;;14.95;100.00;96869.59;4978660;28;20121;-79
2021/07/05 01:43:24;;;;;;;11.15;7.45;;;;;;;15.02;100.00;96868.03;4995275;28;20035;-78
2021/07/05 01:45:49;;;;;;;11.10;6.90;;;;;;;14.92;100.00;96859.09;5012445;28;20018;-79
2021/07/05 01:48:15;;;;;;;15.00;8.07;;;;;;;14.98;100.00;96869.31;4995214;28;20486;-79
2021/07/05 01:50:40;;;;;;;13.77;7.85;;;;;;;14.97;100.00;96865.78;4994777;28;20461;-79
2021/07/05 01:53:06;;;;;;;12.00;7.90;;;;;;;14.88;100.00;96869.28;4995233;28;20018;-78
2021/07/05 01:55:34;;;;;;;11.85;7.82;;;;;;;14.84;100.00;96862.47;4994870;28;20105;-78
2021/07/05 01:58:02;;;;;;;11.27;7.63;;;;;;;14.85;100.00;96863.31;4994833;28;20026;-78
2021/07/05 02:00:28;;;;;;;11.25;7.03;;;;;;;14.83;100.00;96857.22;4995042;28;20465;-77
2021/07/05 02:02:54;;;;;;;13.93;7.32;;;;;;;14.80;100.00;96854.78;4978677;28;20029;-78
2021/07/05 02:05:21;;;;;;;10.55;7.45;;;;;;;14.79;100.00;96847.72;5012662;28;20504;-79
2021/07/05 02:07:48;;;;;;;10.70;6.78;;;;;;;14.92;100.00;96854.53;4994568;28;20030;-77
2021/07/05 02:10:34;;;;;;;15.82;7.72;;;;;;;14.94;100.00;96860.66;4978516;28;20053;-78
2021/07/05 02:13:22;;;;;;;12.00;7.65;;;;;;;14.88;100.00;96853.13;4978158;28;20030;-78
2021/07/05 02:15:50;;;;;;;12.70;7.55;;;;;;;14.87;100.00;96867.59;4993658;28;20421;-78
2021/07/05 02:18:16;;;;;;;16.23;7.78;;;;;;;14.86;100.00;96855.09;4978438;28;20026;-78
2021/07/05 02:20:42;;;;;;;14.82;8.05;;;;;;;14.91;100.00;96858.25;4994331;28;20740;-78
2021/07/05 02:23:10;;;;;;;12.95;7.75;;;;;;;14.87;100.00;96861.34;4978282;28;20057;-78
2021/07/05 02:25:37;;;;;;;13.45;7.97;;;;;;;14.84;100.00;96864.31;4977971;28;20470;-78
2021/07/05 02:28:13;;;;;;;15.95;8.00;;;;;;;14.81;100.00;96853.81;4994544;28;20070;-78
2021/07/05 02:30:40;;;;;;;13.23;8.38;;;;;;;14.81;100.00;96862.75;4994247;28;20088;-78
2021/07/05 02:33:06;;;;;;;17.65;8.48;;;;;;;14.77;100.00;96852.38;4994511;28;20453;-78
2021/07/05 02:35:34;;;;;;;14.80;9.02;;;;;;;14.68;100.00;96853.19;4994193;28;20014;-79
2021/07/05 02:38:00;;;;;;;21.90;9.15;;;;;;;14.59;100.00;96861.13;4986605;28;20489;-77
2021/07/05 02:40:28;;;;;;;18.33;9.80;;;;;;;14.59;100.00;96855.75;4994319;28;20026;-77
2021/07/05 02:42:54;;;;;;;19.98;9.50;;;;;;;14.43;100.00;96858.09;4994061;28;20501;-77
2021/07/05 02:45:23;;;;;;;14.50;9.43;;;;;;;14.31;100.00;96853.75;4993991;28;20037;-78
2021/07/05 02:47:53;;;;;;;19.35;9.32;;;;;;;14.13;100.00;96855.38;4994192;28;20033;-76
2021/07/05 02:50:20;;;;;;;15.57;9.05;;;;;;;14.13;100.00;96858.06;4978450;28;20030;-78
2021/07/05 02:52:45;;;;;;;13.18;8.90;;;;;;;14.15;100.00;96858.75;4993924;28;20117;-77
2021/07/05 02:55:11;;;;;;;15.52;8.70;;;;;;;14.15;100.00;96858.75;5010690;28;20179;-78
2021/07/05 02:57:37;;;;;;;16.40;9.00;;;;;;;14.06;100.00;96864.94;4977566;28;20025;-78
2021/07/05 03:00:08;;;;;;;17.45;9.30;;;;;;;14.10;100.00;96866.38;4994186;28;20406;-78
2021/07/05 03:02:34;;;;;;;18.65;9.02;;;;;;;14.06;100.00;96854.19;5011620;28;20462;-77
2021/07/05 03:05:00;;;;;;;22.70;8.75;;;;;;;13.94;100.00;96860.63;4993823;28;20045;-78
2021/07/05 03:07:26;;;;;;;14.60;10.10;;;;;;;13.91;100.00;96866.28;4994344;28;20109;-78
2021/07/05 03:09:52;;;;;;;15.85;9.57;;;;;;;13.92;100.00;96866.16;4993678;28;20512;-78
2021/07/05 03:12:18;;;;;;;15.13;9.98;;;;;;;13.97;100.00;96863.06;4977763;28;20033;-78
2021/07/05 03:14:43;;;;;;;16.08;10.02;;;;;;;14.02;100.00;96858.16;4977411;28;20046;-78
2021/07/05 03:17:09;;;;;;;17.02;9.40;;;;;;;14.06;100.00;96856.88;4994214;28;20036;-79
2021/07/05 03:19:35;;;;;;;20.17;10.40;;;;;;;14.05;100.00;96858.75;4993536;28;20043;-78
2021/07/05 03:22:01;;;;;;;21.85;10.50;;;;;;;14.12;100.00;96864.41;4993524;28;20464;-78
2021/07/05 03:24:26;;;;;;;26.15;12.15;;;;;;;14.19;100.00;96865.59;5011333;28;20037;-78
2021/07/05 03:26:52;;;;;;;21.27;11.65;;;;;;;14.29;100.00;96865.63;4993459;28;20061;-78
2021/07/05 03:29:17;;;;;;;29.30;11.32;;;;;;;14.30;100.00;96862.81;5011557;28;20106;-78
2021/07/05 03:31:43;;;;;;;21.85;10.68;;;;;;;14.37;100.00;96863.16;4993677;28;20134;-77
2021/07/05 03:34:09;;;;;;;17.80;10.73;;;;;;;14.56;100.00;96869.47;4993664;28;20029;-79
2021/07/05 03:36:34;;;;;;;17.58;8.82;;;;;;;14.63;100.00;96862.56;4977401;28;20057;-78
2021/07/05 03:39:00;;;;;;;17.30;8.60;;;;;;;14.65;100.00;96868.66;4977586;28;20041;-78
2021/07/05 03:41:25;;;;;;;13.15;8.38;;;;;;;14.73;100.00;96864.44;4977286;28;20024;-78
2021/07/05 03:43:51;;;;;;;17.48;8.77;;;;;;;14.81;100.00;96875.34;4993556;28;20034;-79
2021/07/05 03:46:17;;;;;;;16.65;8.35;;;;;;;14.80;100.00;96860.19;4993601;28;20026;-79
2021/07/05 03:48:42;;;;;;;16.15;8.55;;;;;;;14.87;100.00;96870.28;4993558;28;20026;-79
2021/07/05 03:51:08;;;;;;;15.50;8.43;;;;;;;14.87;100.00;96861.34;4993381;28;20049;-80
2021/07/05 03:53:34;;;;;;;15.13;8.18;;;;;;;14.99;100.00;96853.00;4993675;28;20068;-79
2021/07/05 03:55:59;;;;;;;15.65;8.63;;;;;;;15.15;100.00;96853.31;4977459;28;20038;-79
2021/07/05 03:58:25;;;;;;;16.33;9.10;;;;;;;15.20;100.00;96859.13;4993647;28;20184;-79
2021/07/05 04:00:51;;;;;;;13.63;9.10;;;;;;;15.15;100.00;96850.63;4993475;28;20037;-79
2021/07/05 04:03:16;;;;;;;16.17;9.18;;;;;;;15.33;100.00;96858.00;4993169;28;20120;-78
2021/07/05 04:05:42;;;;;;;18.13;9.50;;;;;;;15.36;100.00;96850.50;4993995;28;20029;-79
2021/07/05 04:08:08;;;;;;;13.52;8.85;;;;;;;15.50;100.00;96847.41;4996845;28;20057;-80
2021/07/05 04:10:34;;;;;;;14.55;9.10;;;;;;;15.61;100.00;96847.25;4997223;28;20033;-79
2021/07/05 04:13:04;;;;;;;14.90;8.60;;;;;;;15.60;100.00;96850.09;4980613;28;20065;-79
2021/07/05 04:15:30;;;;;;;13.95;9.52;;;;;;;15.80;100.00;96853.63;5014300;28;20046;-80
2021/07/05 04:17:56;;;;;;;17.50;9.70;;;;;;;15.98;100.00;96843.78;4996613;28;20037;-79
2021/07/05 04:20:22;;;;;;;17.67;10.10;;;;;;;16.09;100.00;96841.78;4996832;28;20405;-80
2021/07/05 04:22:48;;;;;;;19.02;9.90;;;;;;;16.16;100.00;96844.72;4997545;28;20109;-86
2021/07/05 04:25:15;;;;;;;20.40;9.90;;;;;;;16.30;100.00;96843.44;4980956;28;20468;-86
2021/07/05 04:27:41;;;;;;;16.20;9.88;;;;;;;16.36;100.00;96838.28;4980341;28;20112;-85
2021/07/05 04:30:08;;;;;;;27.02;9.57;;;;;;;16.43;100.00;96844.78;4979989;28;20065;-79
2021/07/05 04:32:37;;;;;;;26.17;10.05;;;;;;;16.41;100.00;96837.84;4979999;28;20024;-77
2021/07/05 04:35:04;;;;;;;21.08;10.43;;;;;;;16.40;100.00;96842.38;4980364;28;20026;-77
2021/07/05 04:37:30;;;;;;;16.38;9.63;;;;;;;16.53;100.00;96842.03;4979851;28;20413;-78
2021/07/05 04:39:55;;;;;;;30.30;11.15;;;;;;;16.66;100.00;96840.75;4996180;28;20026;-77
2021/07/05 04:42:21;;;;;;;67.03;12.95;;;;;;;16.75;100.00;96839.84;4995934;28;20084;-78
2021/07/05 04:44:48;;;;;;;24.55;10.23;;;;;;;16.64;100.00;96834.63;5013624;28;20092;-78
2021/07/05 04:47:13;;;;;;;22.88;11.35;;;;;;;16.70;100.00;96842.13;4979956;28;20115;-88
2021/07/05 04:49:39;;;;;;;21.60;10.60;;;;;;;16.79;100.00;96841.25;4980499;28;20033;-88
2021/07/05 04:52:05;;;;;;;25.48;10.60;;;;;;;16.83;98.80;96835.53;4979831;28;20030;-86
2021/07/05 04:54:30;;;;;;;15.02;8.45;;;;;;;17.65;90.68;96837.09;4996621;28;20028;-87
2021/07/05 04:56:56;;;;;;;15.43;9.10;;;;;;;19.86;77.76;96854.06;4980142;28;20040;-85
2021/07/05 04:59:21;;;;;;;14.40;9.35;;;;;;;21.15;70.32;96855.69;4971687;28;20022;-87
2021/07/05 05:01:47;;;;;;;18.60;8.63;;;;;;;22.28;65.47;96856.78;4979049;28;20026;-86
2021/07/05 05:04:14;;;;;;;26.35;9.35;;;;;;;23.79;59.28;96867.09;4979540;28;20057;-85
2021/07/05 05:06:39;;;;;;;29.08;9.18;;;;;;;24.85;54.61;96869.78;4995923;28;20030;-86
2021/07/05 05:09:05;;;;;;;13.60;8.43;;;;;;;25.39;51.92;96867.09;4979603;28;20116;-86
2021/07/05 05:11:30;;;;;;;24.52;7.57;;;;;;;26.72;48.28;96863.41;4979892;28;20077;-87
2021/07/05 05:13:56;;;;;;;17.67;7.75;;;;;;;27.33;44.54;96865.81;4979569;28;20029;-86
2021/07/05 05:16:21;;;;;;;10.15;7.40;;;;;;;27.81;43.98;96871.81;4979160;28;20489;-86
2021/07/05 05:18:47;;;;;;;15.90;7.22;;;;;;;28.42;42.62;96872.91;4978642;28;20037;-86
2021/07/05 05:21:13;;;;;;;12.00;6.95;;;;;;;29.20;40.97;96876.03;4979651;28;20036;-86
2021/07/05 05:23:39;;;;;;;15.93;7.32;;;;;;;30.08;39.14;96866.31;4979443;28;20026;-86
2021/07/05 05:26:04;;;;;;;10.82;7.30;;;;;;;30.53;38.52;96869.44;4979319;28;20478;-86
2021/07/05 05:28:31;;;;;;;16.50;6.97;;;;;;;30.81;37.78;96870.69;4995587;28;20033;-86
2021/07/05 05:30:58;;;;;;;23.77;7.88;;;;;;;31.39;36.32;96868.78;4979985;28;20033;-87
2021/07/05 05:33:23;;;;;;;11.65;7.43;;;;;;;31.62;35.45;96865.19;4979184;28;20030;-87
2021/07/05 05:35:50;;;;;;;9.52;6.10;;;;;;;31.59;34.98;96877.53;4995589;28;20079;-86
2021/07/05 05:38:16;;;;;;;17.55;7.20;;;;;;;31.71;34.76;96866.47;4979031;28;20033;-86
2021/07/05 05:40:41;;;;;;;13.07;7.65;;;;;;;32.25;34.31;96859.53;4979139;28;20091;-86
2021/07/05 05:43:08;;;;;;;22.17;6.68;;;;;;;33.06;32.99;96860.97;4978800;28;20033;-86
2021/07/05 05:45:37;;;;;;;17.27;6.93;;;;;;;33.35;32.94;96865.31;4979166;28;20026;-87
2021/07/05 05:48:03;;;;;;;14.00;7.32;;;;;;;33.43;32.90;96872.38;4979046;28;20163;-87
2021/07/05 05:50:29;;;;;;;15.45;6.53;;;;;;;34.08;31.44;96847.41;4971399;28;20121;-87
2021/07/05 05:52:54;;;;;;;17.45;6.90;;;;;;;34.71;30.85;96850.34;4979317;28;20469;-88
2021/07/05 05:55:20;;;;;;;11.13;6.50;;;;;;;33.78;30.88;96853.44;4978507;28;20088;-86
2021/07/05 05:57:46;;;;;;;7.88;5.30;;;;;;;33.76;30.90;96834.28;4994836;28;20032;-87
2021/07/05 06:00:19;;;;;;;24.67;6.28;;;;;;;34.20;30.92;96845.34;4978559;28;20129;-86
2021/07/05 06:02:47;;;;;;;15.13;6.15;;;;;;;33.85;31.52;96842.97;4979441;28;20034;-87
2021/07/05 06:05:13;;;;;;;11.57;6.20;;;;;;;33.87;31.29;96846.31;4978413;28;20040;-87
2021/07/05 06:07:39;;;;;;;16.45;6.55;;;;;;;34.30;31.03;96856.59;4978758;28;20025;-85
2021/07/05 06:10:06;;;;;;;10.52;5.63;;;;;;;34.90;30.09;96849.94;4979199;28;20026;-86
2021/07/05 06:12:31;;;;;;;12.20;6.43;;;;;;;34.71;30.71;96846.72;4978620;28;20033;-86
2021/07/05 06:14:57;;;;;;;14.60;5.95;;;;;;;34.89;29.99;96839.94;4974908;28;20491;-87
2021/07/05 06:17:23;;;;;;;13.65;6.70;;;;;;;35.85;29.80;96836.66;4975074;28;20046;-86
2021/07/05 06:19:48;;;;;;;11.80;6.05;;;;;;;36.76;28.27;96830.50;4974911;28;20077;-87
2021/07/05 06:22:25;;;;;;;13.13;5.70;;;;;;;36.74;28.25;96833.53;4975106;28;20053;-86
2021/07/05 06:24:50;;;;;;;18.08;5.57;;;;;;;37.03;28.32;96841.38;4991655;28;20030;-87
2021/07/05 06:27:16;;;;;;;12.88;6.20;;;;;;;37.18;27.57;96836.63;4975052;28;20030;-86
2021/07/05 06:29:41;;;;;;;9.73;6.07;;;;;;;37.21;27.13;96827.69;4974770;28;20030;-88
2021/07/05 06:32:07;;;;;;;8.77;6.28;;;;;;;34.97;30.06;96828.31;4975004;28;20092;-88
2021/07/05 06:34:33;;;;;;;12.30;5.55;;;;;;;33.89;30.97;96829.41;4974767;28;20022;-88
2021/07/05 06:36:58;;;;;;;14.25;5.97;;;;;;;31.75;34.92;96842.75;4975326;28;20034;-88
2021/07/05 06:39:24;;;;;;;19.65;6.22;;;;;;;29.25;39.05;96848.69;4974612;28;20065;-88
2021/07/05 06:41:49;;;;;;;15.20;6.03;;;;;;;28.11;42.08;96853.66;4974625;28;20105;-86
2021/07/05 06:44:15;;;;;;;21.08;6.57;;;;;;;28.21;42.84;96853.19;4974424;28;20038;-88
2021/07/05 06:46:40;;;;;;;15.77;6.35;;;;;;;30.20;39.31;96826.84;4991027;28;20383;-87
2021/07/05 06:49:08;;;;;;;10.68;6.10;;;;;;;32.57;35.40;96832.19;4990954;28;20383;-87
2021/07/05 06:51:34;;;;;;;9.43;5.70;;;;;;;33.63;33.02;96818.00;4974869;28;20045;-87
2021/07/05 06:53:59;;;;;;;9.35;6.30;;;;;;;34.49;31.01;96805.06;4991181;28;20042;-87
2021/07/05 06:56:25;;;;;;;10.68;5.18;;;;;;;34.93;30.94;96807.69;4974696;28;20042;-88
2021/07/05 06:58:50;;;;;;;12.13;5.60;;;;;;;35.61;29.44;96807.59;4974596;28;20053;-88
2021/07/05 07:01:16;;;;;;;12.40;5.97;;;;;;;35.42;28.90;96803.56;4974746;28;20041;-90
2021/07/05 07:03:42;;;;;;;11.15;5.50;;;;;;;35.30;30.01;96812.13;4974565;28;20037;-87
2021/07/05 07:06:07;;;;;;;14.90;6.32;;;;;;;34.74;29.79;96804.47;4990858;28;20037;-87
2021/07/05 07:08:33;;;;;;;13.65;6.30;;;;;;;34.54;30.52;96805.13;4974247;28;20030;-87
2021/07/05 07:10:58;;;;;;;13.23;6.30;;;;;;;35.43;29.28;96796.91;4974498;28;20409;-87
2021/07/05 07:13:24;;;;;;;17.67;6.78;;;;;;;33.95;30.92;96797.84;4974132;28;20100;-87
2021/07/05 07:15:52;;;;;;;10.32;5.45;;;;;;;34.83;30.32;96795.38;4974576;28;20061;-87
2021/07/05 07:20:57;;;;;;;9.07;5.45;;;;;;;37.06;28.33;96785.88;4990969;28;20478;-88
2021/07/05 07:23:23;;;;;;;18.50;5.10;;;;;;;38.05;25.60;96772.97;4974213;28;20035;-87
2021/07/05 07:25:49;;;;;;;9.30;5.72;;;;;;;38.50;25.80;96781.06;4974885;28;20124;-88
2021/07/05 07:28:15;;;;;;;10.30;5.35;;;;;;;38.01;26.33;96781.09;4990737;28;20201;-86
2021/07/05 07:30:40;;;;;;;18.50;6.93;;;;;;;39.12;25.05;96785.03;4974245;28;20105;-87
2021/07/05 07:33:06;;;;;;;29.88;9.05;;;;;;;40.01;25.65;96789.91;4974249;28;20490;-90
2021/07/05 07:35:32;;;;;;;11.60;7.10;;;;;;;38.69;25.80;96770.84;4974595;28;20490;-87
2021/07/05 07:37:57;;;;;;;12.52;6.32;;;;;;;38.56;26.26;96779.91;4974190;28;20033;-87
2021/07/05 07:40:29;;;;;;;9.55;5.80;;;;;;;39.25;25.00;96785.22;4974163;28;20026;-87
2021/07/05 07:42:54;;;;;;;16.15;6.22;;;;;;;37.52;27.42;96781.03;4978952;28;20037;-87
2021/07/05 07:45:20;;;;;;;26.40;7.78;;;;;;;39.11;26.00;96783.34;4994411;28;20506;-86
2021/07/05 07:47:47;;;;;;;15.45;5.72;;;;;;;40.48;25.30;96784.19;4977919;28;20489;-87
2021/07/05 07:50:15;;;;;;;12.68;5.40;;;;;;;41.18;24.48;96774.91;4994533;28;20096;-87
2021/07/05 07:52:41;;;;;;;8.52;5.60;;;;;;;38.65;25.69;96764.16;4977741;28;20107;-86
2021/07/05 07:55:08;;;;;;;21.08;5.50;;;;;;;39.55;25.87;96765.25;4978083;28;20030;-88
2021/07/05 07:57:34;;;;;;;45.63;8.50;;;;;;;38.53;27.95;96772.09;4977707;28;20534;-86
2021/07/05 08:00:00;;;;;;;9.63;4.70;;;;;;;39.16;25.31;96758.13;4977844;28;20474;-88
2021/07/05 08:02:26;;;;;;;9.65;4.57;;;;;;;39.28;25.91;96755.78;4993948;28;20030;-87
2021/07/05 08:04:52;;;;;;;7.30;5.03;;;;;;;40.21;25.33;96758.78;4977591;28;20027;-89
2021/07/05 08:07:17;;;;;;;15.20;6.15;;;;;;;40.52;24.31;96759.19;4977768;28;20379;-87
2021/07/05 08:09:43;;;;;;;8.18;5.07;;;;;;;39.90;24.19;96747.16;4977542;28;20038;-86
2021/07/05 08:12:11;;;;;;;8.60;5.28;;;;;;;39.46;24.96;96755.00;4977638;28;20027;-86
2021/07/05 08:14:37;;;;;;;5.10;4.60;;;;;;;38.31;25.93;96743.72;4977252;28;20042;-86
2021/07/05 08:17:03;;;;;;;7.35;4.80;;;;;;;37.69;25.89;96744.34;4977871;28;20482;-86
2021/07/05 08:19:28;;;;;;;10.35;5.60;;;;;;;36.45;28.21;96754.34;4977434;28;20038;-89
2021/07/05 08:21:54;;;;;;;13.07;5.35;;;;;;;35.71;28.83;96751.97;4977934;28;20038;-86
2021/07/05 08:24:19;;;;;;;16.02;5.50;;;;;;;34.67;30.08;96754.69;4978593;28;20022;-87
2021/07/05 08:26:45;;;;;;;14.95;5.30;;;;;;;34.04;31.98;96768.50;4977475;28;20410;-86
2021/07/05 08:29:10;;;;;;;6.00;4.95;;;;;;;33.97;31.92;96759.53;4978311;28;20030;-87
2021/07/05 08:31:36;;;;;;;8.82;5.13;;;;;;;33.82;32.38;96763.00;4979594;28;20025;-87
2021/07/05 08:34:02;;;;;;;6.60;5.35;;;;;;;33.82;32.72;96762.16;4977150;28;20037;-88
2021/07/05 08:36:28;;;;;;;9.50;5.65;;;;;;;34.25;32.75;96765.69;4978533;28;20379;-88
2021/07/05 08:39:06;;;;;;;11.93;5.45;;;;;;;34.46;30.05;96755.59;4978718;28;20026;-89
2021/07/05 08:41:32;;;;;;;6.18;4.60;;;;;;;35.50;28.73;96744.59;4979192;28;20031;-85
2021/07/05 08:43:58;;;;;;;17.00;4.50;;;;;;;38.25;27.83;96753.28;4995478;28;20026;-87
2021/07/05 08:46:24;;;;;;;11.88;5.30;;;;;;;38.91;25.90;96739.63;4977034;28;20022;-86
2021/07/05 08:48:50;;;;;;;6.63;4.60;;;;;;;40.18;23.70;96730.56;4976820;28;20480;-88
2021/07/05 08:51:19;;;;;;;7.43;4.63;;;;;;;42.02;22.20;96735.00;4993303;28;20462;-88
2021/07/05 08:53:46;;;;;;;5.50;4.53;;;;;;;41.80;21.53;96737.75;4976484;28;20026;-87
2021/07/05 08:56:12;;;;;;;9.50;4.53;;;;;;;41.83;22.37;96734.31;4976691;28;20033;-88
2021/07/05 08:58:41;;;;;;;6.88;4.80;;;;;;;42.33;21.63;96739.94;4976508;28;20031;-85
2021/07/05 09:01:09;;;;;;;7.00;4.38;;;;;;;41.42;22.02;96736.25;4976589;28;20564;-86
2021/07/05 09:03:35;;;;;;;17.40;4.70;;;;;;;43.49;20.43;96722.84;4992962;28;20026;-88
2021/07/05 09:06:11;;;;;;;14.80;4.50;;;;;;;44.12;20.47;96739.28;4976708;28;20024;-87
2021/07/05 09:08:40;;;;;;;6.97;4.20;;;;;;;44.48;19.47;96716.44;4992748;28;20037;-86
2021/07/05 09:11:10;;;;;;;7.05;4.78;;;;;;;43.95;18.88;96717.53;4977050;28;20398;-85
2021/07/05 09:13:52;;;;;;;8.43;4.88;;;;;;;42.83;20.42;96713.34;4976693;28;20033;-80
2021/07/05 09:16:29;;;;;;;8.13;6.22;;;;;;;43.87;19.25;96712.69;4977064;28;20124;-87
2021/07/05 09:18:55;;;;;;;10.82;5.05;;;;;;;43.69;19.14;96710.97;4976851;28;20517;-89
2021/07/05 09:21:30;;;;;;;11.50;5.03;;;;;;;43.05;19.31;96699.25;4993410;28;20058;-84
2021/07/05 09:23:57;;;;;;;7.85;4.13;;;;;;;42.11;19.17;96695.72;4977412;28;20034;-81
2021/07/05 09:26:27;;;;;;;9.95;4.22;;;;;;;40.95;20.77;96707.38;4994197;28;20030;-79
2021/07/05 09:28:53;;;;;;;5.20;4.40;;;;;;;41.49;20.16;96702.97;4994279;28;20034;-81
2021/07/05 09:31:31;;;;;;;9.85;4.32;;;;;;;41.88;20.43;96697.63;4995075;28;20034;-78
2021/07/05 09:33:57;;;;;;;10.77;4.93;;;;;;;41.06;22.15;96703.25;4976332;28;20045;-83
2021/07/05 09:36:25;;;;;;;12.18;4.60;;;;;;;40.29;22.69;96693.63;4993282;28;20030;-81
2021/07/05 09:38:51;;;;;;;9.40;4.10;;;;;;;41.01;22.19;96697.72;4992790;28;20425;-82
2021/07/05 09:41:20;;;;;;;8.25;4.40;;;;;;;41.23;22.47;96701.78;4992737;28;20030;-80
2021/07/05 09:43:53;;;;;;;6.88;4.10;;;;;;;41.35;20.81;96690.94;4993632;28;20034;-80
2021/07/05 09:46:53;;;;;;;5.25;4.43;;;;;;;39.98;23.70;96687.66;4992251;28;20485;-81
2021/07/05 09:49:21;;;;;;;4.28;3.85;;;;;;;40.00;22.29;96692.94;4970680;28;20026;-82
2021/07/05 09:52:07;;;;;;;7.38;3.88;;;;;;;40.80;21.62;96679.56;4993311;28;20114;-81
2021/07/05 09:54:34;;;;;;;5.00;3.83;;;;;;;41.10;21.35;96687.44;4993281;28;20030;-81
2021/07/05 10:00:08;;;;;;;11.27;5.38;;;;;;;41.99;21.71;96689.81;4991720;28;20405;-82
2021/07/05 10:02:52;;;;;;;7.03;4.68;;;;;;;40.04;25.32;96691.19;4991552;28;20030;-83
2021/07/05 10:05:18;;;;;;;7.90;4.78;;;;;;;40.46;22.71;96679.03;4991249;28;20023;-83
2021/07/05 10:07:57;;;;;;;5.80;3.97;;;;;;;41.20;22.06;96674.31;4988687;28;20038;-81
2021/07/05 10:10:23;;;;;;;9.82;4.90;;;;;;;40.90;23.28;96687.81;4973249;28;20109;-82
2021/07/05 10:12:57;;;;;;;13.90;6.25;;;;;;;39.48;25.43;96686.34;4989989;28;20113;-82
2021/07/05 10:15:24;;;;;;;6.40;5.03;;;;;;;40.56;23.86;96676.94;4972696;28;20042;-82
2021/07/05 10:17:51;;;;;;;14.88;6.57;;;;;;;41.06;23.44;96677.97;4989023;28;20089;-83
2021/07/05 10:20:19;;;;;;;12.73;5.95;;;;;;;40.52;24.73;96689.91;4972436;28;20038;-81
2021/07/05 10:22:47;;;;;;;9.65;4.50;;;;;;;39.72;23.97;96675.13;4988513;28;20126;-82
2021/07/05 10:25:13;;;;;;;6.22;4.38;;;;;;;40.84;23.00;96677.81;4988806;28;20018;-82
2021/07/05 10:27:39;;;;;;;13.70;4.53;;;;;;;41.20;22.23;96663.09;4988975;28;20030;-82
2021/07/05 10:30:07;;;;;;;11.48;4.32;;;;;;;40.62;23.14;96674.84;4973008;28;20041;-79
2021/07/05 10:32:33;;;;;;;17.58;4.88;;;;;;;40.77;24.86;96688.59;4972589;28;20034;-80
2021/07/05 10:34:59;;;;;;;4.40;4.00;;;;;;;39.46;24.57;96673.78;4988375;28;20026;-80
2021/07/05 10:37:37;;;;;;;7.35;4.82;;;;;;;38.99;24.64;96669.88;4972439;28;20022;-80
2021/07/05 10:40:05;;;;;;;12.18;4.50;;;;;;;38.31;26.57;96671.03;4988515;28;20036;-79
2021/07/05 10:42:53;;;;;;;4.82;4.43;;;;;;;38.41;26.04;96680.22;4971948;28;20465;-78
2021/07/05 10:45:18;;;;;;;10.18;5.25;;;;;;;38.36;26.80;96679.44;4970682;28;20117;-79
2021/07/05 10:47:54;;;;;;;5.32;4.57;;;;;;;37.84;26.62;96680.88;4988218;28;20496;-79
2021/07/05 10:50:44;;;;;;;7.55;4.65;;;;;;;37.36;27.51;96682.50;4971970;28;20113;-79
2021/07/05 10:53:33;;;;;;;9.93;4.90;;;;;;;35.50;29.55;96683.38;4980647;28;20041;-78
2021/07/05 10:56:00;;;;;;;5.40;4.10;;;;;;;35.38;29.26;96685.56;4978419;28;20042;-78
2021/07/05 10:58:33;;;;;;;6.00;4.78;;;;;;;34.95;32.05;96685.94;4988242;28;20070;-78
2021/07/05 11:01:06;;;;;;;4.90;4.40;;;;;;;36.66;29.22;96677.97;4988180;28;20037;-78
2021/07/05 11:03:38;;;;;;;10.88;4.68;;;;;;;37.71;28.97;96681.53;4984303;28;20397;-79
2021/07/05 11:06:28;;;;;;;5.78;4.68;;;;;;;38.44;28.19;96668.44;4988090;28;20030;-79
2021/07/05 11:08:54;;;;;;;7.25;4.95;;;;;;;38.87;27.28;96669.44;4976165;28;20430;-79
2021/07/05 11:11:24;;;;;;;12.48;4.63;;;;;;;38.84;26.15;96666.41;4971552;28;20030;-79
2021/07/05 11:14:30;;;;;;;7.63;4.53;;;;;;;39.15;26.21;96678.91;4989430;28;20662;-79
2021/07/05 11:17:00;;;;;;;6.78;4.63;;;;;;;37.70;27.08;96671.47;4989936;28;20749;-79
2021/07/05 11:19:42;;;;;;;17.20;4.85;;;;;;;37.69;28.49;96678.16;4992345;28;20026;-78
2021/07/05 11:22:34;;;;;;;8.68;5.22;;;;;;;36.90;27.83;96680.97;4992247;28;20474;-79
2021/07/05 11:25:17;;;;;;;5.28;4.35;;;;;;;37.69;26.85;96678.16;4992061;28;20085;-79
2021/07/05 11:27:49;;;;;;;7.43;4.53;;;;;;;38.27;27.04;96673.59;4991824;28;20048;-80
2021/07/05 11:30:24;;;;;;;6.32;4.55;;;;;;;38.34;26.26;96665.72;4975494;28;20109;-79
2021/07/05 11:33:18;;;;;;;11.13;4.30;;;;;;;36.38;28.35;96667.38;4991888;28;20125;-79